sensor_id;sensor_type;location;lat;lon;timestamp;P1;durP1;ratioP1;P2;durP2;ratioP2
12725;SDS011;6427;49.754;6.106;2024-01-10T00:01:27;7.07;;;3.40;;
12725;SDS011;6427;49.754;6.106;2024-01-10T00:03:55;7.07;;;3.20;;
12725;SDS011;6427;49.754;6.106;2024-01-10T00:06:23;6.47;;;3.23;;
12725;SDS011;6427;49.754;6.106;2024-01-10T00:08:51;6.30;;;3.50;;
12725;SDS011;6427;49.754;6.106;2024-01-10T00:11:19;8.73;;;4.63;;
12725;SDS011;6427;49.754;6.106;2024-01-10T00:13:48;7.23;;;3.80;;
12725;SDS011;6427;49.754;6.106;2024-01-10T00:16:15;7.65;;;4.30;;
12725;SDS011;6427;49.754;6.106;2024-01-10T00:18:43;8.03;;;4.10;;
12725;SDS011;6427;49.754;6.106;2024-01-10T00:21:11;8.43;;;3.53;;
12725;SDS011;6427;49.754;6.106;2024-01-10T00:23:38;8.53;;;3.83;;
12725;SDS011;6427;49.754;6.106;2024-01-10T00:26:06;6.93;;;3.17;;
12725;SDS011;6427;49.754;6.106;2024-01-10T00:28:33;8.13;;;4.00;;
12725;SDS011;6427;49.754;6.106;2024-01-10T00:31:01;8.67;;;4.60;;
12725;SDS011;6427;49.754;6.106;2024-01-10T00:33:29;9.00;;;4.57;;
12725;SDS011;6427;49.754;6.106;2024-01-10T00:35:58;7.97;;;4.90;;
12725;SDS011;6427;49.754;6.106;2024-01-10T00:38:25;8.53;;;3.77;;
12725;SDS011;6427;49.754;6.106;2024-01-10T00:40:54;7.93;;;3.97;;
12725;SDS011;6427;49.754;6.106;2024-01-10T00:43:21;8.03;;;4.10;;
12725;SDS011;6427;49.754;6.106;2024-01-10T00:45:50;8.97;;;3.70;;
12725;SDS011;6427;49.754;6.106;2024-01-10T00:48:17;8.13;;;4.03;;
12725;SDS011;6427;49.754;6.106;2024-01-10T00:50:45;9.67;;;3.83;;
12725;SDS011;6427;49.754;6.106;2024-01-10T00:53:12;7.83;;;3.70;;
12725;SDS011;6427;49.754;6.106;2024-01-10T00:55:40;7.13;;;3.43;;
12725;SDS011;6427;49.754;6.106;2024-01-10T00:58:08;8.33;;;3.53;;
12725;SDS011;6427;49.754;6.106;2024-01-10T01:00:36;7.27;;;3.43;;
12725;SDS011;6427;49.754;6.106;2024-01-10T01:03:06;7.30;;;3.87;;
12725;SDS011;6427;49.754;6.106;2024-01-10T01:05:33;6.20;;;3.53;;
12725;SDS011;6427;49.754;6.106;2024-01-10T01:08:00;8.50;;;3.87;;
12725;SDS011;6427;49.754;6.106;2024-01-10T01:10:28;6.83;;;3.53;;
12725;SDS011;6427;49.754;6.106;2024-01-10T01:12:56;7.13;;;3.80;;
12725;SDS011;6427;49.754;6.106;2024-01-10T01:15:24;7.50;;;3.43;;
12725;SDS011;6427;49.754;6.106;2024-01-10T01:17:51;8.17;;;3.90;;
12725;SDS011;6427;49.754;6.106;2024-01-10T01:20:19;6.73;;;3.97;;
12725;SDS011;6427;49.754;6.106;2024-01-10T01:22:48;9.40;;;4.07;;
12725;SDS011;6427;49.754;6.106;2024-01-10T01:25:15;7.27;;;3.70;;
12725;SDS011;6427;49.754;6.106;2024-01-10T01:27:43;9.77;;;3.67;;
12725;SDS011;6427;49.754;6.106;2024-01-10T01:30:11;8.43;;;4.00;;
12725;SDS011;6427;49.754;6.106;2024-01-10T01:32:38;10.53;;;4.13;;
12725;SDS011;6427;49.754;6.106;2024-01-10T01:35:06;7.60;;;3.50;;
12725;SDS011;6427;49.754;6.106;2024-01-10T01:37:34;8.40;;;3.47;;
12725;SDS011;6427;49.754;6.106;2024-01-10T01:40:02;8.85;;;4.68;;
12725;SDS011;6427;49.754;6.106;2024-01-10T01:42:29;9.35;;;4.80;;
12725;SDS011;6427;49.754;6.106;2024-01-10T01:44:57;8.10;;;3.93;;
12725;SDS011;6427;49.754;6.106;2024-01-10T01:47:25;6.13;;;3.87;;
12725;SDS011;6427;49.754;6.106;2024-01-10T01:49:52;10.40;;;5.17;;
12725;SDS011;6427;49.754;6.106;2024-01-10T01:52:20;10.10;;;4.47;;
12725;SDS011;6427;49.754;6.106;2024-01-10T01:54:47;6.43;;;3.73;;
12725;SDS011;6427;49.754;6.106;2024-01-10T01:57:15;12.03;;;3.67;;
12725;SDS011;6427;49.754;6.106;2024-01-10T01:59:43;7.63;;;3.70;;
12725;SDS011;6427;49.754;6.106;2024-01-10T02:02:10;7.80;;;3.37;;
12725;SDS011;6427;49.754;6.106;2024-01-10T02:04:38;8.57;;;3.43;;
12725;SDS011;6427;49.754;6.106;2024-01-10T02:07:05;6.77;;;3.43;;
12725;SDS011;6427;49.754;6.106;2024-01-10T02:09:33;12.93;;;4.20;;
12725;SDS011;6427;49.754;6.106;2024-01-10T02:12:01;7.30;;;3.70;;
12725;SDS011;6427;49.754;6.106;2024-01-10T02:14:28;9.13;;;4.20;;
12725;SDS011;6427;49.754;6.106;2024-01-10T02:16:56;8.00;;;4.17;;
12725;SDS011;6427;49.754;6.106;2024-01-10T02:19:24;10.80;;;4.47;;
12725;SDS011;6427;49.754;6.106;2024-01-10T02:21:52;8.97;;;3.93;;
12725;SDS011;6427;49.754;6.106;2024-01-10T02:24:20;11.03;;;5.60;;
12725;SDS011;6427;49.754;6.106;2024-01-10T02:26:48;8.33;;;4.10;;
12725;SDS011;6427;49.754;6.106;2024-01-10T02:29:15;10.03;;;4.27;;
12725;SDS011;6427;49.754;6.106;2024-01-10T02:31:43;8.53;;;3.83;;
12725;SDS011;6427;49.754;6.106;2024-01-10T02:34:10;6.87;;;3.67;;
12725;SDS011;6427;49.754;6.106;2024-01-10T02:36:38;6.90;;;3.57;;
12725;SDS011;6427;49.754;6.106;2024-01-10T02:39:06;7.83;;;3.90;;
12725;SDS011;6427;49.754;6.106;2024-01-10T02:41:33;9.07;;;3.87;;
12725;SDS011;6427;49.754;6.106;2024-01-10T02:44:01;9.13;;;5.27;;
12725;SDS011;6427;49.754;6.106;2024-01-10T02:46:28;8.07;;;4.40;;
12725;SDS011;6427;49.754;6.106;2024-01-10T02:48:56;9.93;;;5.27;;
12725;SDS011;6427;49.754;6.106;2024-01-10T02:51:26;9.70;;;5.30;;
12725;SDS011;6427;49.754;6.106;2024-01-10T02:53:51;11.77;;;5.80;;
12725;SDS011;6427;49.754;6.106;2024-01-10T02:56:19;8.50;;;4.07;;
12725;SDS011;6427;49.754;6.106;2024-01-10T02:58:46;8.20;;;3.87;;
12725;SDS011;6427;49.754;6.106;2024-01-10T03:01:14;8.43;;;4.27;;
12725;SDS011;6427;49.754;6.106;2024-01-10T03:03:42;8.47;;;4.47;;
12725;SDS011;6427;49.754;6.106;2024-01-10T03:06:09;9.73;;;4.33;;
12725;SDS011;6427;49.754;6.106;2024-01-10T03:08:37;9.83;;;4.33;;
12725;SDS011;6427;49.754;6.106;2024-01-10T03:11:06;9.43;;;4.20;;
12725;SDS011;6427;49.754;6.106;2024-01-10T03:13:33;9.03;;;4.43;;
12725;SDS011;6427;49.754;6.106;2024-01-10T03:16:01;10.23;;;5.50;;
12725;SDS011;6427;49.754;6.106;2024-01-10T03:18:29;8.73;;;4.60;;
12725;SDS011;6427;49.754;6.106;2024-01-10T03:20:56;8.80;;;4.20;;
12725;SDS011;6427;49.754;6.106;2024-01-10T03:23:24;11.90;;;4.90;;
12725;SDS011;6427;49.754;6.106;2024-01-10T03:25:51;11.23;;;4.50;;
12725;SDS011;6427;49.754;6.106;2024-01-10T03:28:19;9.77;;;4.17;;
12725;SDS011;6427;49.754;6.106;2024-01-10T03:30:47;8.43;;;4.30;;
12725;SDS011;6427;49.754;6.106;2024-01-10T03:33:14;7.60;;;3.57;;
12725;SDS011;6427;49.754;6.106;2024-01-10T03:35:42;10.93;;;4.63;;
12725;SDS011;6427;49.754;6.106;2024-01-10T03:38:09;10.90;;;4.73;;
12725;SDS011;6427;49.754;6.106;2024-01-10T03:40:37;12.23;;;6.03;;
12725;SDS011;6427;49.754;6.106;2024-01-10T03:43:05;10.27;;;5.80;;
12725;SDS011;6427;49.754;6.106;2024-01-10T03:45:32;11.43;;;6.33;;
12725;SDS011;6427;49.754;6.106;2024-01-10T03:48:00;9.43;;;5.77;;
12725;SDS011;6427;49.754;6.106;2024-01-10T03:50:27;10.80;;;5.80;;
12725;SDS011;6427;49.754;6.106;2024-01-10T03:52:55;7.63;;;4.40;;
12725;SDS011;6427;49.754;6.106;2024-01-10T03:55:23;11.43;;;4.73;;
12725;SDS011;6427;49.754;6.106;2024-01-10T03:57:51;10.03;;;6.10;;
12725;SDS011;6427;49.754;6.106;2024-01-10T04:00:19;10.33;;;5.40;;
12725;SDS011;6427;49.754;6.106;2024-01-10T04:02:46;8.27;;;4.53;;
12725;SDS011;6427;49.754;6.106;2024-01-10T04:05:14;8.97;;;4.27;;
12725;SDS011;6427;49.754;6.106;2024-01-10T04:07:42;11.60;;;5.80;;
12725;SDS011;6427;49.754;6.106;2024-01-10T04:10:09;9.53;;;5.80;;
12725;SDS011;6427;49.754;6.106;2024-01-10T04:12:37;9.47;;;4.83;;
12725;SDS011;6427;49.754;6.106;2024-01-10T04:15:04;8.50;;;4.27;;
12725;SDS011;6427;49.754;6.106;2024-01-10T04:17:32;10.50;;;4.97;;
12725;SDS011;6427;49.754;6.106;2024-01-10T04:20:00;8.30;;;4.30;;
12725;SDS011;6427;49.754;6.106;2024-01-10T04:22:27;9.20;;;4.47;;
12725;SDS011;6427;49.754;6.106;2024-01-10T04:24:59;8.67;;;4.57;;
12725;SDS011;6427;49.754;6.106;2024-01-10T04:27:26;9.13;;;4.70;;
12725;SDS011;6427;49.754;6.106;2024-01-10T04:29:54;11.17;;;6.13;;
12725;SDS011;6427;49.754;6.106;2024-01-10T04:32:22;10.40;;;4.97;;
12725;SDS011;6427;49.754;6.106;2024-01-10T04:34:50;10.20;;;4.50;;
12725;SDS011;6427;49.754;6.106;2024-01-10T04:37:18;12.10;;;4.93;;
12725;SDS011;6427;49.754;6.106;2024-01-10T04:39:45;9.77;;;4.63;;
12725;SDS011;6427;49.754;6.106;2024-01-10T04:42:14;11.37;;;6.10;;
12725;SDS011;6427;49.754;6.106;2024-01-10T04:44:41;10.10;;;4.80;;
12725;SDS011;6427;49.754;6.106;2024-01-10T04:47:09;9.47;;;4.93;;
12725;SDS011;6427;49.754;6.106;2024-01-10T04:49:36;10.67;;;5.37;;
12725;SDS011;6427;49.754;6.106;2024-01-10T04:52:04;9.83;;;5.07;;
12725;SDS011;6427;49.754;6.106;2024-01-10T04:54:32;13.23;;;6.25;;
12725;SDS011;6427;49.754;6.106;2024-01-10T04:56:59;11.83;;;5.93;;
12725;SDS011;6427;49.754;6.106;2024-01-10T04:59:28;11.70;;;6.67;;
12725;SDS011;6427;49.754;6.106;2024-01-10T05:01:55;10.30;;;5.30;;
12725;SDS011;6427;49.754;6.106;2024-01-10T05:04:24;13.77;;;5.60;;
12725;SDS011;6427;49.754;6.106;2024-01-10T05:06:52;10.40;;;5.13;;
12725;SDS011;6427;49.754;6.106;2024-01-10T05:09:20;9.27;;;5.00;;
12725;SDS011;6427;49.754;6.106;2024-01-10T05:11:48;11.80;;;5.47;;
12725;SDS011;6427;49.754;6.106;2024-01-10T05:14:16;11.23;;;5.40;;
12725;SDS011;6427;49.754;6.106;2024-01-10T05:16:43;10.90;;;5.40;;
12725;SDS011;6427;49.754;6.106;2024-01-10T05:19:11;11.63;;;5.00;;
12725;SDS011;6427;49.754;6.106;2024-01-10T05:21:38;13.70;;;6.13;;
12725;SDS011;6427;49.754;6.106;2024-01-10T05:24:06;11.70;;;6.50;;
12725;SDS011;6427;49.754;6.106;2024-01-10T05:26:33;12.33;;;5.50;;
12725;SDS011;6427;49.754;6.106;2024-01-10T05:29:02;12.27;;;6.70;;
12725;SDS011;6427;49.754;6.106;2024-01-10T05:31:29;12.63;;;6.67;;
12725;SDS011;6427;49.754;6.106;2024-01-10T05:33:58;13.43;;;6.07;;
12725;SDS011;6427;49.754;6.106;2024-01-10T05:36:25;12.37;;;5.80;;
12725;SDS011;6427;49.754;6.106;2024-01-10T05:38:53;10.47;;;5.53;;
12725;SDS011;6427;49.754;6.106;2024-01-10T05:41:21;10.10;;;4.77;;
12725;SDS011;6427;49.754;6.106;2024-01-10T05:43:48;10.77;;;5.23;;
12725;SDS011;6427;49.754;6.106;2024-01-10T05:46:16;13.27;;;7.20;;
12725;SDS011;6427;49.754;6.106;2024-01-10T05:48:43;13.20;;;6.30;;
12725;SDS011;6427;49.754;6.106;2024-01-10T05:51:11;12.73;;;5.33;;
12725;SDS011;6427;49.754;6.106;2024-01-10T05:53:39;15.57;;;7.50;;
12725;SDS011;6427;49.754;6.106;2024-01-10T05:56:06;12.80;;;6.47;;
12725;SDS011;6427;49.754;6.106;2024-01-10T05:58:34;12.50;;;5.73;;
12725;SDS011;6427;49.754;6.106;2024-01-10T06:01:01;13.53;;;7.87;;
12725;SDS011;6427;49.754;6.106;2024-01-10T06:03:29;13.07;;;6.00;;
12725;SDS011;6427;49.754;6.106;2024-01-10T06:05:57;11.93;;;7.53;;
12725;SDS011;6427;49.754;6.106;2024-01-10T06:08:26;13.20;;;7.50;;
12725;SDS011;6427;49.754;6.106;2024-01-10T06:10:53;11.93;;;6.77;;
12725;SDS011;6427;49.754;6.106;2024-01-10T06:13:22;12.93;;;7.70;;
12725;SDS011;6427;49.754;6.106;2024-01-10T06:15:49;14.47;;;7.00;;
12725;SDS011;6427;49.754;6.106;2024-01-10T06:18:18;13.77;;;7.67;;
12725;SDS011;6427;49.754;6.106;2024-01-10T06:20:45;12.57;;;6.77;;
12725;SDS011;6427;49.754;6.106;2024-01-10T06:23:13;14.77;;;8.13;;
12725;SDS011;6427;49.754;6.106;2024-01-10T06:25:40;13.53;;;6.13;;
12725;SDS011;6427;49.754;6.106;2024-01-10T06:28:09;14.47;;;7.90;;
12725;SDS011;6427;49.754;6.106;2024-01-10T06:30:36;14.98;;;8.18;;
12725;SDS011;6427;49.754;6.106;2024-01-10T06:33:04;15.67;;;7.13;;
12725;SDS011;6427;49.754;6.106;2024-01-10T06:35:32;12.87;;;5.73;;
12725;SDS011;6427;49.754;6.106;2024-01-10T06:37:59;10.30;;;5.60;;
12725;SDS011;6427;49.754;6.106;2024-01-10T06:40:27;16.37;;;6.77;;
12725;SDS011;6427;49.754;6.106;2024-01-10T06:42:54;13.40;;;6.00;;
12725;SDS011;6427;49.754;6.106;2024-01-10T06:45:22;12.00;;;5.73;;
12725;SDS011;6427;49.754;6.106;2024-01-10T06:47:50;13.97;;;6.60;;
12725;SDS011;6427;49.754;6.106;2024-01-10T06:50:18;16.07;;;6.97;;
12725;SDS011;6427;49.754;6.106;2024-01-10T06:52:46;14.90;;;6.70;;
12725;SDS011;6427;49.754;6.106;2024-01-10T06:55:13;16.00;;;6.40;;
12725;SDS011;6427;49.754;6.106;2024-01-10T06:57:41;18.53;;;7.13;;
12725;SDS011;6427;49.754;6.106;2024-01-10T07:00:08;12.50;;;6.23;;
12725;SDS011;6427;49.754;6.106;2024-01-10T07:02:36;14.93;;;7.97;;
12725;SDS011;6427;49.754;6.106;2024-01-10T07:05:08;17.07;;;8.83;;
12725;SDS011;6427;49.754;6.106;2024-01-10T07:07:36;15.95;;;8.68;;
12725;SDS011;6427;49.754;6.106;2024-01-10T07:10:04;14.80;;;6.87;;
12725;SDS011;6427;49.754;6.106;2024-01-10T07:12:34;14.35;;;8.82;;
12725;SDS011;6427;49.754;6.106;2024-01-10T07:15:02;14.83;;;7.23;;
12725;SDS011;6427;49.754;6.106;2024-01-10T07:17:29;15.33;;;7.00;;
12725;SDS011;6427;49.754;6.106;2024-01-10T07:19:57;13.40;;;6.60;;
12725;SDS011;6427;49.754;6.106;2024-01-10T07:22:24;17.37;;;6.40;;
12725;SDS011;6427;49.754;6.106;2024-01-10T07:24:53;14.30;;;6.70;;
12725;SDS011;6427;49.754;6.106;2024-01-10T07:27:20;16.92;;;9.00;;
12725;SDS011;6427;49.754;6.106;2024-01-10T07:31:24;13.93;;;7.20;;
12725;SDS011;6427;49.754;6.106;2024-01-10T07:33:52;17.03;;;9.07;;
12725;SDS011;6427;49.754;6.106;2024-01-10T07:36:20;13.73;;;7.03;;
12725;SDS011;6427;49.754;6.106;2024-01-10T07:38:47;14.73;;;7.47;;
12725;SDS011;6427;49.754;6.106;2024-01-10T07:41:15;12.37;;;6.40;;
12725;SDS011;6427;49.754;6.106;2024-01-10T07:43:42;14.87;;;8.57;;
12725;SDS011;6427;49.754;6.106;2024-01-10T07:46:10;12.77;;;7.07;;
12725;SDS011;6427;49.754;6.106;2024-01-10T07:48:38;18.20;;;7.13;;
12725;SDS011;6427;49.754;6.106;2024-01-10T07:51:05;15.20;;;6.80;;
12725;SDS011;6427;49.754;6.106;2024-01-10T07:53:33;17.00;;;7.23;;
12725;SDS011;6427;49.754;6.106;2024-01-10T07:56:01;14.50;;;7.00;;
12725;SDS011;6427;49.754;6.106;2024-01-10T07:58:29;17.40;;;7.53;;
12725;SDS011;6427;49.754;6.106;2024-01-10T08:00:57;14.90;;;7.33;;
12725;SDS011;6427;49.754;6.106;2024-01-10T08:03:25;13.53;;;6.27;;
12725;SDS011;6427;49.754;6.106;2024-01-10T08:05:53;13.60;;;7.33;;
12725;SDS011;6427;49.754;6.106;2024-01-10T08:08:21;17.60;;;7.43;;
12725;SDS011;6427;49.754;6.106;2024-01-10T08:10:49;16.83;;;6.90;;
12725;SDS011;6427;49.754;6.106;2024-01-10T08:13:17;16.33;;;7.00;;
12725;SDS011;6427;49.754;6.106;2024-01-10T08:15:44;15.50;;;6.93;;
12725;SDS011;6427;49.754;6.106;2024-01-10T08:18:12;15.80;;;7.30;;
12725;SDS011;6427;49.754;6.106;2024-01-10T08:20:39;16.47;;;7.43;;
12725;SDS011;6427;49.754;6.106;2024-01-10T08:23:07;17.13;;;7.30;;
12725;SDS011;6427;49.754;6.106;2024-01-10T08:25:35;17.13;;;9.70;;
12725;SDS011;6427;49.754;6.106;2024-01-10T08:28:03;19.50;;;9.82;;
12725;SDS011;6427;49.754;6.106;2024-01-10T08:30:30;14.83;;;7.23;;
12725;SDS011;6427;49.754;6.106;2024-01-10T08:32:58;17.53;;;7.30;;
12725;SDS011;6427;49.754;6.106;2024-01-10T08:35:26;13.77;;;6.87;;
12725;SDS011;6427;49.754;6.106;2024-01-10T08:37:53;16.67;;;7.07;;
12725;SDS011;6427;49.754;6.106;2024-01-10T08:40:22;18.30;;;8.13;;
12725;SDS011;6427;49.754;6.106;2024-01-10T08:42:51;17.03;;;7.30;;
12725;SDS011;6427;49.754;6.106;2024-01-10T08:45:18;18.43;;;7.90;;
12725;SDS011;6427;49.754;6.106;2024-01-10T08:47:45;14.87;;;7.13;;
12725;SDS011;6427;49.754;6.106;2024-01-10T08:50:13;17.83;;;8.00;;
12725;SDS011;6427;49.754;6.106;2024-01-10T08:52:41;17.80;;;7.53;;
12725;SDS011;6427;49.754;6.106;2024-01-10T08:55:09;19.17;;;7.00;;
12725;SDS011;6427;49.754;6.106;2024-01-10T08:57:36;17.57;;;9.53;;
12725;SDS011;6427;49.754;6.106;2024-01-10T09:00:04;17.17;;;8.37;;
12725;SDS011;6427;49.754;6.106;2024-01-10T09:02:33;14.07;;;7.30;;
12725;SDS011;6427;49.754;6.106;2024-01-10T09:05:00;16.90;;;7.97;;
12725;SDS011;6427;49.754;6.106;2024-01-10T09:07:28;15.07;;;7.20;;
12725;SDS011;6427;49.754;6.106;2024-01-10T09:09:55;18.53;;;8.37;;
12725;SDS011;6427;49.754;6.106;2024-01-10T09:12:23;14.97;;;7.73;;
12725;SDS011;6427;49.754;6.106;2024-01-10T09:14:51;15.60;;;7.43;;
12725;SDS011;6427;49.754;6.106;2024-01-10T09:17:18;18.93;;;7.90;;
12725;SDS011;6427;49.754;6.106;2024-01-10T09:19:46;18.60;;;8.43;;
12725;SDS011;6427;49.754;6.106;2024-01-10T09:22:13;17.10;;;8.03;;
12725;SDS011;6427;49.754;6.106;2024-01-10T09:24:42;19.03;;;10.87;;
12725;SDS011;6427;49.754;6.106;2024-01-10T09:27:09;17.30;;;9.27;;
12725;SDS011;6427;49.754;6.106;2024-01-10T09:29:37;17.80;;;8.93;;
12725;SDS011;6427;49.754;6.106;2024-01-10T09:32:05;17.57;;;8.27;;
12725;SDS011;6427;49.754;6.106;2024-01-10T09:34:32;19.37;;;10.40;;
12725;SDS011;6427;49.754;6.106;2024-01-10T09:37:00;20.40;;;9.37;;
12725;SDS011;6427;49.754;6.106;2024-01-10T09:39:27;16.00;;;8.97;;
12725;SDS011;6427;49.754;6.106;2024-01-10T09:41:55;16.40;;;7.70;;
12725;SDS011;6427;49.754;6.106;2024-01-10T09:44:23;15.43;;;8.47;;
12725;SDS011;6427;49.754;6.106;2024-01-10T09:46:54;15.40;;;8.00;;
12725;SDS011;6427;49.754;6.106;2024-01-10T09:49:18;17.40;;;8.80;;
12725;SDS011;6427;49.754;6.106;2024-01-10T09:51:46;20.57;;;9.17;;
12725;SDS011;6427;49.754;6.106;2024-01-10T09:54:14;16.50;;;8.63;;
12725;SDS011;6427;49.754;6.106;2024-01-10T09:56:42;20.53;;;8.47;;
12725;SDS011;6427;49.754;6.106;2024-01-10T09:59:09;18.10;;;9.10;;
12725;SDS011;6427;49.754;6.106;2024-01-10T10:01:37;17.70;;;8.83;;
12725;SDS011;6427;49.754;6.106;2024-01-10T10:04:06;19.93;;;10.60;;
12725;SDS011;6427;49.754;6.106;2024-01-10T10:06:33;19.12;;;10.70;;
12725;SDS011;6427;49.754;6.106;2024-01-10T10:09:00;19.48;;;11.35;;
12725;SDS011;6427;49.754;6.106;2024-01-10T10:11:28;20.43;;;10.07;;
12725;SDS011;6427;49.754;6.106;2024-01-10T10:13:56;18.37;;;9.07;;
12725;SDS011;6427;49.754;6.106;2024-01-10T10:16:24;19.90;;;9.37;;
12725;SDS011;6427;49.754;6.106;2024-01-10T10:18:51;21.50;;;9.13;;
12725;SDS011;6427;49.754;6.106;2024-01-10T10:21:19;19.87;;;8.87;;
12725;SDS011;6427;49.754;6.106;2024-01-10T10:23:59;20.10;;;11.37;;
12725;SDS011;6427;49.754;6.106;2024-01-10T10:26:27;16.70;;;9.00;;
12725;SDS011;6427;49.754;6.106;2024-01-10T10:28:54;18.97;;;9.23;;
12725;SDS011;6427;49.754;6.106;2024-01-10T10:31:22;18.23;;;8.67;;
12725;SDS011;6427;49.754;6.106;2024-01-10T10:33:49;19.73;;;9.20;;
12725;SDS011;6427;49.754;6.106;2024-01-10T10:36:21;18.73;;;9.00;;
12725;SDS011;6427;49.754;6.106;2024-01-10T10:38:48;17.27;;;8.50;;
12725;SDS011;6427;49.754;6.106;2024-01-10T10:41:16;18.67;;;10.97;;
12725;SDS011;6427;49.754;6.106;2024-01-10T10:43:44;18.03;;;8.80;;
12725;SDS011;6427;49.754;6.106;2024-01-10T10:46:12;18.53;;;9.20;;
12725;SDS011;6427;49.754;6.106;2024-01-10T10:48:40;16.37;;;8.90;;
12725;SDS011;6427;49.754;6.106;2024-01-10T10:51:09;16.53;;;8.83;;
12725;SDS011;6427;49.754;6.106;2024-01-10T10:53:37;18.20;;;9.53;;
12725;SDS011;6427;49.754;6.106;2024-01-10T10:56:04;22.30;;;12.20;;
12725;SDS011;6427;49.754;6.106;2024-01-10T10:58:33;21.67;;;9.80;;
12725;SDS011;6427;49.754;6.106;2024-01-10T11:01:03;20.20;;;9.43;;
12725;SDS011;6427;49.754;6.106;2024-01-10T11:03:30;20.80;;;10.60;;
12725;SDS011;6427;49.754;6.106;2024-01-10T11:05:58;19.87;;;11.63;;
12725;SDS011;6427;49.754;6.106;2024-01-10T11:08:26;20.62;;;12.05;;
12725;SDS011;6427;49.754;6.106;2024-01-10T11:10:53;19.03;;;10.13;;
12725;SDS011;6427;49.754;6.106;2024-01-10T11:13:28;21.93;;;10.73;;
12725;SDS011;6427;49.754;6.106;2024-01-10T11:16:09;19.93;;;9.73;;
12725;SDS011;6427;49.754;6.106;2024-01-10T11:18:59;18.50;;;9.37;;
12725;SDS011;6427;49.754;6.106;2024-01-10T11:24:17;18.73;;;9.47;;
12725;SDS011;6427;49.754;6.106;2024-01-10T11:26:45;19.03;;;9.67;;
12725;SDS011;6427;49.754;6.106;2024-01-10T11:29:12;18.50;;;9.50;;
12725;SDS011;6427;49.754;6.106;2024-01-10T11:31:40;21.05;;;12.23;;
12725;SDS011;6427;49.754;6.106;2024-01-10T11:34:08;19.83;;;10.93;;
12725;SDS011;6427;49.754;6.106;2024-01-10T11:36:35;20.03;;;10.53;;
12725;SDS011;6427;49.754;6.106;2024-01-10T11:39:04;19.20;;;10.33;;
12725;SDS011;6427;49.754;6.106;2024-01-10T11:41:34;23.17;;;13.43;;
12725;SDS011;6427;49.754;6.106;2024-01-10T11:46:39;19.87;;;10.37;;
12725;SDS011;6427;49.754;6.106;2024-01-10T11:49:09;20.80;;;10.50;;
12725;SDS011;6427;49.754;6.106;2024-01-10T11:51:36;19.57;;;10.10;;
12725;SDS011;6427;49.754;6.106;2024-01-10T11:54:04;22.83;;;10.57;;
12725;SDS011;6427;49.754;6.106;2024-01-10T11:56:39;24.33;;;11.47;;
12725;SDS011;6427;49.754;6.106;2024-01-10T11:59:06;18.43;;;10.03;;
12725;SDS011;6427;49.754;6.106;2024-01-10T12:01:36;19.57;;;9.60;;
12725;SDS011;6427;49.754;6.106;2024-01-10T12:04:04;21.57;;;10.93;;
12725;SDS011;6427;49.754;6.106;2024-01-10T12:06:32;18.93;;;9.77;;
12725;SDS011;6427;49.754;6.106;2024-01-10T12:08:59;19.73;;;9.93;;
12725;SDS011;6427;49.754;6.106;2024-01-10T12:11:27;22.80;;;9.90;;
12725;SDS011;6427;49.754;6.106;2024-01-10T12:13:55;19.20;;;9.60;;
12725;SDS011;6427;49.754;6.106;2024-01-10T12:16:23;21.87;;;9.50;;
12725;SDS011;6427;49.754;6.106;2024-01-10T12:18:50;18.17;;;9.73;;
12725;SDS011;6427;49.754;6.106;2024-01-10T12:21:18;18.37;;;9.07;;
12725;SDS011;6427;49.754;6.106;2024-01-10T12:23:45;19.30;;;9.87;;
12725;SDS011;6427;49.754;6.106;2024-01-10T12:26:13;21.03;;;10.33;;
12725;SDS011;6427;49.754;6.106;2024-01-10T12:28:41;20.30;;;9.83;;
12725;SDS011;6427;49.754;6.106;2024-01-10T12:31:08;19.43;;;11.93;;
12725;SDS011;6427;49.754;6.106;2024-01-10T12:33:37;18.93;;;10.13;;
12725;SDS011;6427;49.754;6.106;2024-01-10T12:36:10;18.33;;;9.43;;
12725;SDS011;6427;49.754;6.106;2024-01-10T12:38:40;21.00;;;12.53;;
12725;SDS011;6427;49.754;6.106;2024-01-10T12:41:08;23.62;;;12.75;;
12725;SDS011;6427;49.754;6.106;2024-01-10T12:43:36;19.17;;;10.37;;
12725;SDS011;6427;49.754;6.106;2024-01-10T12:46:04;20.33;;;9.93;;
12725;SDS011;6427;49.754;6.106;2024-01-10T12:48:31;18.87;;;9.63;;
12725;SDS011;6427;49.754;6.106;2024-01-10T12:50:59;19.03;;;9.43;;
12725;SDS011;6427;49.754;6.106;2024-01-10T12:53:29;20.93;;;10.07;;
12725;SDS011;6427;49.754;6.106;2024-01-10T12:55:57;18.57;;;10.03;;
12725;SDS011;6427;49.754;6.106;2024-01-10T12:58:25;20.43;;;10.33;;
12725;SDS011;6427;49.754;6.106;2024-01-10T13:00:53;17.50;;;9.80;;
12725;SDS011;6427;49.754;6.106;2024-01-10T13:03:21;21.00;;;9.70;;
12725;SDS011;6427;49.754;6.106;2024-01-10T13:05:50;18.33;;;9.13;;
12725;SDS011;6427;49.754;6.106;2024-01-10T13:08:18;20.13;;;10.13;;
12725;SDS011;6427;49.754;6.106;2024-01-10T13:10:46;19.73;;;9.53;;
12725;SDS011;6427;49.754;6.106;2024-01-10T13:13:13;18.50;;;9.97;;
12725;SDS011;6427;49.754;6.106;2024-01-10T13:15:41;18.70;;;9.63;;
12725;SDS011;6427;49.754;6.106;2024-01-10T13:18:08;19.83;;;10.20;;
12725;SDS011;6427;49.754;6.106;2024-01-10T13:20:38;20.15;;;12.07;;
12725;SDS011;6427;49.754;6.106;2024-01-10T13:23:06;17.90;;;10.77;;
12725;SDS011;6427;49.754;6.106;2024-01-10T13:25:37;18.73;;;9.40;;
12725;SDS011;6427;49.754;6.106;2024-01-10T13:28:05;20.73;;;12.18;;
12725;SDS011;6427;49.754;6.106;2024-01-10T13:30:33;21.67;;;11.07;;
12725;SDS011;6427;49.754;6.106;2024-01-10T13:33:00;20.80;;;10.17;;
12725;SDS011;6427;49.754;6.106;2024-01-10T13:35:28;20.90;;;10.33;;
12725;SDS011;6427;49.754;6.106;2024-01-10T13:37:56;18.50;;;9.67;;
12725;SDS011;6427;49.754;6.106;2024-01-10T13:40:24;20.23;;;12.00;;
12725;SDS011;6427;49.754;6.106;2024-01-10T13:42:51;20.43;;;10.27;;
12725;SDS011;6427;49.754;6.106;2024-01-10T13:45:19;24.17;;;11.47;;
12725;SDS011;6427;49.754;6.106;2024-01-10T13:47:47;21.20;;;9.70;;
12725;SDS011;6427;49.754;6.106;2024-01-10T13:50:14;20.20;;;10.33;;
12725;SDS011;6427;49.754;6.106;2024-01-10T13:52:42;18.47;;;9.73;;
12725;SDS011;6427;49.754;6.106;2024-01-10T13:55:09;19.53;;;9.53;;
12725;SDS011;6427;49.754;6.106;2024-01-10T13:57:38;20.83;;;12.30;;
12725;SDS011;6427;49.754;6.106;2024-01-10T14:00:05;19.63;;;10.63;;
12725;SDS011;6427;49.754;6.106;2024-01-10T14:02:34;21.37;;;10.23;;
12725;SDS011;6427;49.754;6.106;2024-01-10T14:05:01;19.90;;;10.13;;
12725;SDS011;6427;49.754;6.106;2024-01-10T14:07:30;24.13;;;10.70;;
12725;SDS011;6427;49.754;6.106;2024-01-10T14:09:57;17.67;;;9.50;;
12725;SDS011;6427;49.754;6.106;2024-01-10T14:12:27;21.17;;;10.63;;
12725;SDS011;6427;49.754;6.106;2024-01-10T14:14:53;19.80;;;10.03;;
12725;SDS011;6427;49.754;6.106;2024-01-10T14:17:21;19.73;;;9.47;;
12725;SDS011;6427;49.754;6.106;2024-01-10T14:19:50;23.23;;;10.10;;
12725;SDS011;6427;49.754;6.106;2024-01-10T14:22:17;19.17;;;9.13;;
12725;SDS011;6427;49.754;6.106;2024-01-10T14:24:45;16.70;;;9.53;;
12725;SDS011;6427;49.754;6.106;2024-01-10T14:27:14;17.73;;;10.10;;
12725;SDS011;6427;49.754;6.106;2024-01-10T14:29:42;20.60;;;10.33;;
12725;SDS011;6427;49.754;6.106;2024-01-10T14:32:10;22.27;;;10.83;;
12725;SDS011;6427;49.754;6.106;2024-01-10T14:34:42;19.67;;;9.83;;
12725;SDS011;6427;49.754;6.106;2024-01-10T14:37:05;21.00;;;12.93;;
12725;SDS011;6427;49.754;6.106;2024-01-10T14:39:33;19.63;;;10.47;;
12725;SDS011;6427;49.754;6.106;2024-01-10T14:42:00;23.10;;;10.73;;
12725;SDS011;6427;49.754;6.106;2024-01-10T14:44:28;20.47;;;10.03;;
12725;SDS011;6427;49.754;6.106;2024-01-10T14:46:55;20.63;;;10.53;;
12725;SDS011;6427;49.754;6.106;2024-01-10T14:49:23;18.03;;;9.53;;
12725;SDS011;6427;49.754;6.106;2024-01-10T14:51:52;17.43;;;9.17;;
12725;SDS011;6427;49.754;6.106;2024-01-10T14:54:19;18.07;;;9.23;;
12725;SDS011;6427;49.754;6.106;2024-01-10T14:56:47;21.63;;;12.60;;
12725;SDS011;6427;49.754;6.106;2024-01-10T14:59:15;21.73;;;12.77;;